sensor_id;sensor_type;location;lat;lon;timestamp;P1;durP1;ratioP1;P2;durP2;ratioP2
5125;SDS011;63008;53.112;8.896;2022-12-18T00:00:09;43.30;;;28.40;;
5125;SDS011;63008;53.112;8.896;2022-12-18T00:02:11;47.37;;;29.27;;
5125;SDS011;63008;53.112;8.896;2022-12-18T00:04:18;42.23;;;27.07;;
5125;SDS011;63008;53.112;8.896;2022-12-18T00:06:22;47.60;;;28.10;;
5125;SDS011;63008;53.112;8.896;2022-12-18T00:08:23;45.37;;;27.90;;
5125;SDS011;63008;53.112;8.896;2022-12-18T00:10:24;45.60;;;27.07;;
5125;SDS011;63008;53.112;8.896;2022-12-18T00:12:25;48.17;;;27.43;;
5125;SDS011;63008;53.112;8.896;2022-12-18T00:14:26;46.37;;;27.10;;
5125;SDS011;63008;53.112;8.896;2022-12-18T00:16:27;41.07;;;27.43;;
5125;SDS011;63008;53.112;8.896;2022-12-18T00:18:30;47.53;;;26.97;;
5125;SDS011;63008;53.112;8.896;2022-12-18T00:20:35;42.97;;;27.57;;
5125;SDS011;63008;53.112;8.896;2022-12-18T00:22:37;44.80;;;27.97;;
5125;SDS011;63008;53.112;8.896;2022-12-18T00:24:38;44.20;;;26.27;;
5125;SDS011;63008;53.112;8.896;2022-12-18T00:26:39;43.33;;;27.03;;
5125;SDS011;63008;53.112;8.896;2022-12-18T00:28:40;43.70;;;27.17;;
5125;SDS011;63008;53.112;8.896;2022-12-18T00:30:41;41.23;;;24.53;;
5125;SDS011;63008;53.112;8.896;2022-12-18T00:32:42;37.70;;;25.10;;
5125;SDS011;63008;53.112;8.896;2022-12-18T00:34:43;44.20;;;25.50;;
5125;SDS011;63008;53.112;8.896;2022-12-18T00:36:46;41.77;;;26.23;;
5125;SDS011;63008;53.112;8.896;2022-12-18T00:38:48;37.90;;;24.27;;
5125;SDS011;63008;53.112;8.896;2022-12-18T00:40:49;44.50;;;26.80;;
5125;SDS011;63008;53.112;8.896;2022-12-18T00:42:50;42.63;;;25.80;;
5125;SDS011;63008;53.112;8.896;2022-12-18T00:44:57;45.50;;;27.63;;
5125;SDS011;63008;53.112;8.896;2022-12-18T00:46:58;46.80;;;25.30;;
5125;SDS011;63008;53.112;8.896;2022-12-18T00:48:59;46.73;;;25.30;;
5125;SDS011;63008;53.112;8.896;2022-12-18T00:51:00;38.10;;;25.33;;
5125;SDS011;63008;53.112;8.896;2022-12-18T00:53:01;41.67;;;25.13;;
5125;SDS011;63008;53.112;8.896;2022-12-18T00:55:02;34.90;;;22.93;;
5125;SDS011;63008;53.112;8.896;2022-12-18T00:57:03;34.03;;;22.27;;
5125;SDS011;63008;53.112;8.896;2022-12-18T00:59:04;39.87;;;24.43;;
5125;SDS011;63008;53.112;8.896;2022-12-18T01:01:05;38.07;;;24.40;;
5125;SDS011;63008;53.112;8.896;2022-12-18T01:03:07;35.97;;;23.30;;
5125;SDS011;63008;53.112;8.896;2022-12-18T01:05:10;34.13;;;23.63;;
5125;SDS011;63008;53.112;8.896;2022-12-18T01:07:15;34.73;;;22.80;;
5125;SDS011;63008;53.112;8.896;2022-12-18T01:09:16;35.57;;;22.87;;
5125;SDS011;63008;53.112;8.896;2022-12-18T01:11:18;38.63;;;22.43;;
5125;SDS011;63008;53.112;8.896;2022-12-18T01:13:20;46.60;;;23.70;;
5125;SDS011;63008;53.112;8.896;2022-12-18T01:15:21;37.17;;;22.63;;
5125;SDS011;63008;53.112;8.896;2022-12-18T01:17:22;38.93;;;24.40;;
5125;SDS011;63008;53.112;8.896;2022-12-18T01:19:23;38.27;;;23.43;;
5125;SDS011;63008;53.112;8.896;2022-12-18T01:21:24;35.17;;;22.77;;
5125;SDS011;63008;53.112;8.896;2022-12-18T01:23:25;33.67;;;21.90;;
5125;SDS011;63008;53.112;8.896;2022-12-18T01:25:26;34.07;;;23.17;;
5125;SDS011;63008;53.112;8.896;2022-12-18T01:27:27;32.93;;;21.57;;
5125;SDS011;63008;53.112;8.896;2022-12-18T01:29:28;33.77;;;21.70;;
5125;SDS011;63008;53.112;8.896;2022-12-18T01:31:30;34.47;;;21.80;;
5125;SDS011;63008;53.112;8.896;2022-12-18T01:33:33;32.70;;;22.30;;
5125;SDS011;63008;53.112;8.896;2022-12-18T01:35:39;32.97;;;21.77;;
5125;SDS011;63008;53.112;8.896;2022-12-18T01:37:41;34.57;;;20.17;;
5125;SDS011;63008;53.112;8.896;2022-12-18T01:39:42;36.40;;;21.53;;
5125;SDS011;63008;53.112;8.896;2022-12-18T01:41:43;36.03;;;20.60;;
5125;SDS011;63008;53.112;8.896;2022-12-18T01:44:46;32.47;;;19.80;;
5125;SDS011;63008;53.112;8.896;2022-12-18T01:46:43;36.53;;;21.60;;
5125;SDS011;63008;53.112;8.896;2022-12-18T01:48:44;31.93;;;20.20;;
5125;SDS011;63008;53.112;8.896;2022-12-18T01:50:49;31.50;;;20.63;;
5125;SDS011;63008;53.112;8.896;2022-12-18T01:53:00;38.70;;;21.30;;
5125;SDS011;63008;53.112;8.896;2022-12-18T01:55:06;34.77;;;21.47;;
5125;SDS011;63008;53.112;8.896;2022-12-18T01:57:08;34.40;;;21.10;;
5125;SDS011;63008;53.112;8.896;2022-12-18T01:59:09;30.07;;;19.23;;
5125;SDS011;63008;53.112;8.896;2022-12-18T02:01:12;37.03;;;21.67;;
5125;SDS011;63008;53.112;8.896;2022-12-18T02:03:13;32.87;;;19.27;;
5125;SDS011;63008;53.112;8.896;2022-12-18T02:05:26;32.03;;;20.63;;
5125;SDS011;63008;53.112;8.896;2022-12-18T02:07:40;32.20;;;20.10;;
5125;SDS011;63008;53.112;8.896;2022-12-18T02:09:50;31.33;;;19.07;;
5125;SDS011;63008;53.112;8.896;2022-12-18T02:14:34;32.93;;;19.57;;
5125;SDS011;63008;53.112;8.896;2022-12-18T02:16:49;33.13;;;19.40;;
5125;SDS011;63008;53.112;8.896;2022-12-18T02:18:59;37.33;;;19.67;;
5125;SDS011;63008;53.112;8.896;2022-12-18T02:28:28;28.60;;;18.50;;
5125;SDS011;63008;53.112;8.896;2022-12-18T02:30:34;30.43;;;17.83;;
5125;SDS011;63008;53.112;8.896;2022-12-18T02:32:40;30.70;;;18.93;;
5125;SDS011;63008;53.112;8.896;2022-12-18T02:34:44;28.10;;;18.00;;
5125;SDS011;63008;53.112;8.896;2022-12-18T02:36:47;30.23;;;19.47;;
5125;SDS011;63008;53.112;8.896;2022-12-18T02:38:50;25.80;;;17.80;;
5125;SDS011;63008;53.112;8.896;2022-12-18T02:40:52;25.47;;;17.07;;
5125;SDS011;63008;53.112;8.896;2022-12-18T02:42:54;33.17;;;18.13;;
5125;SDS011;63008;53.112;8.896;2022-12-18T02:44:55;29.00;;;17.20;;
5125;SDS011;63008;53.112;8.896;2022-12-18T02:46:56;26.30;;;17.27;;
5125;SDS011;63008;53.112;8.896;2022-12-18T02:49:01;29.33;;;18.33;;
5125;SDS011;63008;53.112;8.896;2022-12-18T02:51:20;28.23;;;18.10;;
5125;SDS011;63008;53.112;8.896;2022-12-18T02:53:50;29.13;;;18.90;;
5125;SDS011;63008;53.112;8.896;2022-12-18T02:58:20;35.00;;;19.07;;
5125;SDS011;63008;53.112;8.896;2022-12-18T03:03:16;31.80;;;19.27;;
5125;SDS011;63008;53.112;8.896;2022-12-18T03:05:27;31.17;;;17.97;;
5125;SDS011;63008;53.112;8.896;2022-12-18T03:07:34;38.00;;;17.63;;
5125;SDS011;63008;53.112;8.896;2022-12-18T03:09:39;28.00;;;17.10;;
5125;SDS011;63008;53.112;8.896;2022-12-18T03:11:44;27.53;;;16.73;;
5125;SDS011;63008;53.112;8.896;2022-12-18T03:14:12;29.30;;;16.40;;
5125;SDS011;63008;53.112;8.896;2022-12-18T03:16:20;24.53;;;16.70;;
5125;SDS011;63008;53.112;8.896;2022-12-18T03:18:27;27.33;;;16.77;;
5125;SDS011;63008;53.112;8.896;2022-12-18T03:20:34;25.70;;;16.20;;
5125;SDS011;63008;53.112;8.896;2022-12-18T03:22:36;28.30;;;16.80;;
5125;SDS011;63008;53.112;8.896;2022-12-18T03:24:39;22.40;;;15.20;;
5125;SDS011;63008;53.112;8.896;2022-12-18T03:26:41;26.17;;;15.97;;
5125;SDS011;63008;53.112;8.896;2022-12-18T03:28:47;27.33;;;16.10;;
5125;SDS011;63008;53.112;8.896;2022-12-18T03:30:56;25.50;;;16.47;;
5125;SDS011;63008;53.112;8.896;2022-12-18T03:33:02;24.67;;;15.47;;
5125;SDS011;63008;53.112;8.896;2022-12-18T03:35:09;25.67;;;16.40;;
5125;SDS011;63008;53.112;8.896;2022-12-18T03:37:13;23.80;;;15.60;;
5125;SDS011;63008;53.112;8.896;2022-12-18T03:39:14;22.20;;;14.83;;
5125;SDS011;63008;53.112;8.896;2022-12-18T03:45:52;23.77;;;14.47;;
5125;SDS011;63008;53.112;8.896;2022-12-18T03:48:01;26.50;;;16.43;;
5125;SDS011;63008;53.112;8.896;2022-12-18T03:52:23;22.93;;;14.20;;
5125;SDS011;63008;53.112;8.896;2022-12-18T03:54:28;24.97;;;15.17;;
5125;SDS011;63008;53.112;8.896;2022-12-18T03:56:34;27.03;;;15.03;;
5125;SDS011;63008;53.112;8.896;2022-12-18T03:58:39;24.43;;;14.13;;
5125;SDS011;63008;53.112;8.896;2022-12-18T04:00:42;22.23;;;14.10;;
5125;SDS011;63008;53.112;8.896;2022-12-18T04:02:53;20.77;;;13.60;;
5125;SDS011;63008;53.112;8.896;2022-12-18T04:04:56;22.73;;;13.90;;
5125;SDS011;63008;53.112;8.896;2022-12-18T04:07:01;26.10;;;14.53;;
5125;SDS011;63008;53.112;8.896;2022-12-18T04:09:03;22.00;;;14.40;;
5125;SDS011;63008;53.112;8.896;2022-12-18T04:11:05;25.60;;;13.97;;
5125;SDS011;63008;53.112;8.896;2022-12-18T04:13:06;21.30;;;13.67;;
5125;SDS011;63008;53.112;8.896;2022-12-18T04:15:07;22.57;;;14.07;;
5125;SDS011;63008;53.112;8.896;2022-12-18T04:17:09;20.40;;;12.87;;
5125;SDS011;63008;53.112;8.896;2022-12-18T04:19:10;28.60;;;14.00;;
5125;SDS011;63008;53.112;8.896;2022-12-18T04:21:11;25.20;;;13.90;;
5125;SDS011;63008;53.112;8.896;2022-12-18T04:23:12;23.63;;;13.27;;
5125;SDS011;63008;53.112;8.896;2022-12-18T04:25:13;19.00;;;13.80;;
5125;SDS011;63008;53.112;8.896;2022-12-18T04:27:14;22.50;;;13.50;;
5125;SDS011;63008;53.112;8.896;2022-12-18T04:29:15;18.70;;;13.10;;
5125;SDS011;63008;53.112;8.896;2022-12-18T04:31:16;21.10;;;13.27;;
5125;SDS011;63008;53.112;8.896;2022-12-18T04:33:18;24.97;;;12.80;;
5125;SDS011;63008;53.112;8.896;2022-12-18T04:35:19;19.70;;;12.83;;
5125;SDS011;63008;53.112;8.896;2022-12-18T04:37:20;18.53;;;12.70;;
5125;SDS011;63008;53.112;8.896;2022-12-18T04:39:20;20.40;;;13.00;;
5125;SDS011;63008;53.112;8.896;2022-12-18T04:41:21;17.63;;;12.80;;
5125;SDS011;63008;53.112;8.896;2022-12-18T04:43:22;20.37;;;13.00;;
5125;SDS011;63008;53.112;8.896;2022-12-18T04:45:23;18.23;;;12.80;;
5125;SDS011;63008;53.112;8.896;2022-12-18T04:47:24;17.37;;;12.53;;
5125;SDS011;63008;53.112;8.896;2022-12-18T04:49:25;20.77;;;12.83;;
5125;SDS011;63008;53.112;8.896;2022-12-18T04:51:26;18.30;;;12.13;;
5125;SDS011;63008;53.112;8.896;2022-12-18T04:53:27;21.73;;;13.13;;
5125;SDS011;63008;53.112;8.896;2022-12-18T04:55:28;16.80;;;12.20;;
5125;SDS011;63008;53.112;8.896;2022-12-18T04:57:29;19.77;;;12.00;;
5125;SDS011;63008;53.112;8.896;2022-12-18T04:59:30;20.20;;;12.67;;
5125;SDS011;63008;53.112;8.896;2022-12-18T05:01:31;19.90;;;13.37;;
5125;SDS011;63008;53.112;8.896;2022-12-18T05:03:32;23.20;;;12.37;;
5125;SDS011;63008;53.112;8.896;2022-12-18T05:05:34;17.40;;;11.13;;
5125;SDS011;63008;53.112;8.896;2022-12-18T05:07:36;18.60;;;11.77;;
5125;SDS011;63008;53.112;8.896;2022-12-18T05:09:37;18.70;;;11.30;;
5125;SDS011;63008;53.112;8.896;2022-12-18T05:11:38;19.70;;;12.20;;
5125;SDS011;63008;53.112;8.896;2022-12-18T05:13:39;16.67;;;11.70;;
5125;SDS011;63008;53.112;8.896;2022-12-18T05:15:40;18.83;;;11.40;;
5125;SDS011;63008;53.112;8.896;2022-12-18T05:17:42;20.57;;;11.20;;
5125;SDS011;63008;53.112;8.896;2022-12-18T05:19:43;24.53;;;12.07;;
5125;SDS011;63008;53.112;8.896;2022-12-18T05:21:44;21.90;;;12.50;;
5125;SDS011;63008;53.112;8.896;2022-12-18T05:23:45;18.20;;;11.90;;
5125;SDS011;63008;53.112;8.896;2022-12-18T05:25:47;17.53;;;11.80;;
5125;SDS011;63008;53.112;8.896;2022-12-18T05:27:52;21.23;;;12.30;;
5125;SDS011;63008;53.112;8.896;2022-12-18T05:29:53;19.20;;;12.50;;
5125;SDS011;63008;53.112;8.896;2022-12-18T05:31:54;20.60;;;12.10;;
5125;SDS011;63008;53.112;8.896;2022-12-18T05:33:55;18.97;;;11.50;;
5125;SDS011;63008;53.112;8.896;2022-12-18T05:35:57;21.33;;;11.97;;
5125;SDS011;63008;53.112;8.896;2022-12-18T05:37:59;21.00;;;12.00;;
5125;SDS011;63008;53.112;8.896;2022-12-18T05:40:00;17.57;;;11.13;;
5125;SDS011;63008;53.112;8.896;2022-12-18T05:42:02;17.13;;;11.30;;
5125;SDS011;63008;53.112;8.896;2022-12-18T05:44:03;22.70;;;12.30;;
5125;SDS011;63008;53.112;8.896;2022-12-18T05:46:04;24.10;;;12.70;;
5125;SDS011;63008;53.112;8.896;2022-12-18T05:48:07;18.23;;;11.97;;
5125;SDS011;63008;53.112;8.896;2022-12-18T05:50:08;18.20;;;11.60;;
5125;SDS011;63008;53.112;8.896;2022-12-18T05:52:10;16.50;;;11.97;;
5125;SDS011;63008;53.112;8.896;2022-12-18T05:54:11;20.13;;;11.53;;
5125;SDS011;63008;53.112;8.896;2022-12-18T05:56:13;18.77;;;11.30;;
5125;SDS011;63008;53.112;8.896;2022-12-18T05:58:16;15.67;;;11.67;;
5125;SDS011;63008;53.112;8.896;2022-12-18T06:00:17;17.17;;;11.50;;
5125;SDS011;63008;53.112;8.896;2022-12-18T06:02:18;20.90;;;12.60;;
5125;SDS011;63008;53.112;8.896;2022-12-18T06:04:21;18.77;;;11.83;;
5125;SDS011;63008;53.112;8.896;2022-12-18T06:06:23;13.90;;;10.20;;
5125;SDS011;63008;53.112;8.896;2022-12-18T06:08:26;20.60;;;12.47;;
5125;SDS011;63008;53.112;8.896;2022-12-18T06:10:27;19.57;;;11.17;;
5125;SDS011;63008;53.112;8.896;2022-12-18T06:12:28;21.70;;;13.33;;
5125;SDS011;63008;53.112;8.896;2022-12-18T06:14:29;19.00;;;12.20;;
5125;SDS011;63008;53.112;8.896;2022-12-18T06:16:30;15.10;;;10.70;;
5125;SDS011;63008;53.112;8.896;2022-12-18T06:18:32;18.60;;;11.67;;
5125;SDS011;63008;53.112;8.896;2022-12-18T06:20:33;16.27;;;11.27;;
5125;SDS011;63008;53.112;8.896;2022-12-18T06:22:34;17.47;;;11.27;;
5125;SDS011;63008;53.112;8.896;2022-12-18T06:24:35;18.43;;;12.20;;
5125;SDS011;63008;53.112;8.896;2022-12-18T06:26:37;16.20;;;11.40;;
5125;SDS011;63008;53.112;8.896;2022-12-18T06:28:39;18.80;;;11.90;;
5125;SDS011;63008;53.112;8.896;2022-12-18T06:30:43;17.60;;;12.03;;
5125;SDS011;63008;53.112;8.896;2022-12-18T06:32:44;25.57;;;11.30;;
5125;SDS011;63008;53.112;8.896;2022-12-18T06:34:45;22.60;;;12.47;;
5125;SDS011;63008;53.112;8.896;2022-12-18T06:36:46;19.03;;;12.30;;
5125;SDS011;63008;53.112;8.896;2022-12-18T06:38:47;16.23;;;10.70;;
5125;SDS011;63008;53.112;8.896;2022-12-18T06:40:48;18.63;;;12.67;;
5125;SDS011;63008;53.112;8.896;2022-12-18T06:42:49;21.90;;;10.93;;
5125;SDS011;63008;53.112;8.896;2022-12-18T06:44:50;16.67;;;10.93;;
5125;SDS011;63008;53.112;8.896;2022-12-18T06:46:51;21.43;;;12.17;;
5125;SDS011;63008;53.112;8.896;2022-12-18T06:48:52;18.90;;;11.73;;
5125;SDS011;63008;53.112;8.896;2022-12-18T06:50:53;17.13;;;11.10;;
5125;SDS011;63008;53.112;8.896;2022-12-18T06:52:54;19.93;;;12.00;;
5125;SDS011;63008;53.112;8.896;2022-12-18T06:54:55;14.90;;;10.63;;
5125;SDS011;63008;53.112;8.896;2022-12-18T06:56:56;15.10;;;11.00;;
5125;SDS011;63008;53.112;8.896;2022-12-18T06:58:57;16.40;;;11.33;;
5125;SDS011;63008;53.112;8.896;2022-12-18T07:01:02;15.77;;;10.83;;
5125;SDS011;63008;53.112;8.896;2022-12-18T07:03:05;16.73;;;11.47;;
5125;SDS011;63008;53.112;8.896;2022-12-18T07:05:06;16.77;;;11.47;;
5125;SDS011;63008;53.112;8.896;2022-12-18T07:07:07;18.70;;;11.20;;
5125;SDS011;63008;53.112;8.896;2022-12-18T07:09:08;17.53;;;11.07;;
5125;SDS011;63008;53.112;8.896;2022-12-18T07:11:09;19.23;;;11.37;;
5125;SDS011;63008;53.112;8.896;2022-12-18T07:13:10;20.90;;;11.40;;
5125;SDS011;63008;53.112;8.896;2022-12-18T07:15:11;18.20;;;11.70;;
5125;SDS011;63008;53.112;8.896;2022-12-18T07:17:12;16.40;;;11.50;;
5125;SDS011;63008;53.112;8.896;2022-12-18T07:19:13;19.43;;;12.70;;
5125;SDS011;63008;53.112;8.896;2022-12-18T07:21:15;21.53;;;12.27;;
5125;SDS011;63008;53.112;8.896;2022-12-18T07:23:18;17.83;;;11.87;;
5125;SDS011;63008;53.112;8.896;2022-12-18T07:25:19;16.80;;;11.70;;
5125;SDS011;63008;53.112;8.896;2022-12-18T07:27:20;18.23;;;11.63;;
5125;SDS011;63008;53.112;8.896;2022-12-18T07:29:21;23.43;;;12.50;;
5125;SDS011;63008;53.112;8.896;2022-12-18T07:31:22;20.50;;;10.93;;
5125;SDS011;63008;53.112;8.896;2022-12-18T07:33:23;20.23;;;11.77;;
5125;SDS011;63008;53.112;8.896;2022-12-18T07:35:24;16.50;;;10.70;;
5125;SDS011;63008;53.112;8.896;2022-12-18T07:37:25;16.83;;;10.87;;
5125;SDS011;63008;53.112;8.896;2022-12-18T07:39:26;16.23;;;11.13;;
5125;SDS011;63008;53.112;8.896;2022-12-18T07:41:27;19.70;;;11.40;;
5125;SDS011;63008;53.112;8.896;2022-12-18T07:43:28;18.60;;;10.97;;
5125;SDS011;63008;53.112;8.896;2022-12-18T07:45:29;20.17;;;11.13;;
5125;SDS011;63008;53.112;8.896;2022-12-18T07:47:30;13.03;;;9.93;;
5125;SDS011;63008;53.112;8.896;2022-12-18T07:49:31;21.30;;;10.80;;
5125;SDS011;63008;53.112;8.896;2022-12-18T07:51:32;20.77;;;10.07;;
5125;SDS011;63008;53.112;8.896;2022-12-18T07:53:33;21.17;;;11.83;;
5125;SDS011;63008;53.112;8.896;2022-12-18T07:55:35;20.20;;;12.50;;
5125;SDS011;63008;53.112;8.896;2022-12-18T07:57:36;16.17;;;10.97;;
5125;SDS011;63008;53.112;8.896;2022-12-18T07:59:37;16.93;;;11.83;;
5125;SDS011;63008;53.112;8.896;2022-12-18T08:01:38;18.77;;;11.70;;
5125;SDS011;63008;53.112;8.896;2022-12-18T08:03:40;15.10;;;11.40;;
5125;SDS011;63008;53.112;8.896;2022-12-18T08:05:41;17.90;;;11.83;;
5125;SDS011;63008;53.112;8.896;2022-12-18T08:07:42;14.60;;;9.97;;
5125;SDS011;63008;53.112;8.896;2022-12-18T08:09:43;15.60;;;10.67;;
5125;SDS011;63008;53.112;8.896;2022-12-18T08:11:44;18.87;;;12.17;;
5125;SDS011;63008;53.112;8.896;2022-12-18T08:13:45;18.90;;;13.00;;
5125;SDS011;63008;53.112;8.896;2022-12-18T08:15:46;18.10;;;11.63;;
5125;SDS011;63008;53.112;8.896;2022-12-18T08:17:47;20.20;;;11.20;;
5125;SDS011;63008;53.112;8.896;2022-12-18T08:19:48;20.13;;;10.90;;
5125;SDS011;63008;53.112;8.896;2022-12-18T08:21:49;19.33;;;13.00;;
5125;SDS011;63008;53.112;8.896;2022-12-18T08:23:50;18.37;;;11.83;;
5125;SDS011;63008;53.112;8.896;2022-12-18T08:25:52;16.80;;;11.67;;
5125;SDS011;63008;53.112;8.896;2022-12-18T08:27:53;21.97;;;11.47;;
5125;SDS011;63008;53.112;8.896;2022-12-18T08:29:57;22.17;;;11.00;;
5125;SDS011;63008;53.112;8.896;2022-12-18T08:31:58;15.83;;;10.43;;
5125;SDS011;63008;53.112;8.896;2022-12-18T08:33:59;21.63;;;10.83;;
5125;SDS011;63008;53.112;8.896;2022-12-18T08:36:00;19.87;;;12.33;;
5125;SDS011;63008;53.112;8.896;2022-12-18T08:38:03;22.93;;;13.20;;
5125;SDS011;63008;53.112;8.896;2022-12-18T08:40:05;18.07;;;11.47;;
5125;SDS011;63008;53.112;8.896;2022-12-18T08:42:07;18.40;;;11.43;;
5125;SDS011;63008;53.112;8.896;2022-12-18T08:44:27;18.27;;;11.27;;
5125;SDS011;63008;53.112;8.896;2022-12-18T08:46:40;18.67;;;12.00;;
5125;SDS011;63008;53.112;8.896;2022-12-18T08:48:42;18.47;;;12.50;;
5125;SDS011;63008;53.112;8.896;2022-12-18T08:50:51;18.43;;;10.93;;
5125;SDS011;63008;53.112;8.896;2022-12-18T08:52:54;20.53;;;11.80;;
5125;SDS011;63008;53.112;8.896;2022-12-18T08:54:55;18.87;;;11.27;;
5125;SDS011;63008;53.112;8.896;2022-12-18T08:56:56;19.10;;;12.00;;
5125;SDS011;63008;53.112;8.896;2022-12-18T08:58:57;20.40;;;11.43;;
5125;SDS011;63008;53.112;8.896;2022-12-18T09:01:01;14.23;;;11.00;;
5125;SDS011;63008;53.112;8.896;2022-12-18T09:03:03;18.70;;;11.30;;
5125;SDS011;63008;53.112;8.896;2022-12-18T09:05:04;18.03;;;11.23;;
5125;SDS011;63008;53.112;8.896;2022-12-18T09:07:06;14.70;;;10.17;;
5125;SDS011;63008;53.112;8.896;2022-12-18T09:09:07;15.90;;;10.70;;
5125;SDS011;63008;53.112;8.896;2022-12-18T09:11:14;16.70;;;10.13;;
5125;SDS011;63008;53.112;8.896;2022-12-18T09:13:26;17.13;;;11.13;;
5125;SDS011;63008;53.112;8.896;2022-12-18T09:15:27;16.70;;;10.90;;
5125;SDS011;63008;53.112;8.896;2022-12-18T09:17:28;15.77;;;10.83;;
5125;SDS011;63008;53.112;8.896;2022-12-18T09:19:29;14.20;;;10.03;;
5125;SDS011;63008;53.112;8.896;2022-12-18T09:21:31;16.77;;;10.37;;
5125;SDS011;63008;53.112;8.896;2022-12-18T09:23:33;17.40;;;11.10;;
5125;SDS011;63008;53.112;8.896;2022-12-18T09:25:34;17.20;;;10.03;;
5125;SDS011;63008;53.112;8.896;2022-12-18T09:27:36;15.40;;;10.30;;
5125;SDS011;63008;53.112;8.896;2022-12-18T09:29:37;16.27;;;9.47;;
5125;SDS011;63008;53.112;8.896;2022-12-18T09:31:38;14.10;;;9.37;;
5125;SDS011;63008;53.112;8.896;2022-12-18T09:33:40;15.50;;;9.97;;
5125;SDS011;63008;53.112;8.896;2022-12-18T09:35:42;20.07;;;9.30;;
5125;SDS011;63008;53.112;8.896;2022-12-18T09:37:44;19.60;;;11.03;;
5125;SDS011;63008;53.112;8.896;2022-12-18T09:39:45;13.73;;;9.10;;
5125;SDS011;63008;53.112;8.896;2022-12-18T09:41:47;14.17;;;8.87;;
5125;SDS011;63008;53.112;8.896;2022-12-18T09:43:55;12.97;;;8.90;;
5125;SDS011;63008;53.112;8.896;2022-12-18T09:46:08;13.47;;;8.40;;
5125;SDS011;63008;53.112;8.896;2022-12-18T09:48:22;18.17;;;9.87;;
5125;SDS011;63008;53.112;8.896;2022-12-18T09:50:28;13.07;;;9.10;;
5125;SDS011;63008;53.112;8.896;2022-12-18T09:52:42;12.10;;;8.80;;
5125;SDS011;63008;53.112;8.896;2022-12-18T09:54:56;11.23;;;8.07;;
5125;SDS011;63008;53.112;8.896;2022-12-18T09:56:58;15.40;;;9.47;;
5125;SDS011;63008;53.112;8.896;2022-12-18T09:59:00;12.20;;;8.67;;
5125;SDS011;63008;53.112;8.896;2022-12-18T10:01:08;14.60;;;8.97;;
5125;SDS011;63008;53.112;8.896;2022-12-18T10:03:15;17.50;;;9.10;;
5125;SDS011;63008;53.112;8.896;2022-12-18T10:05:17;24.33;;;8.67;;
5125;SDS011;63008;53.112;8.896;2022-12-18T10:07:32;18.10;;;9.07;;
5125;SDS011;63008;53.112;8.896;2022-12-18T10:09:47;13.60;;;8.77;;
5125;SDS011;63008;53.112;8.896;2022-12-18T10:12:08;16.27;;;9.20;;
5125;SDS011;63008;53.112;8.896;2022-12-18T10:14:23;15.10;;;8.50;;
5125;SDS011;63008;53.112;8.896;2022-12-18T10:16:34;10.97;;;8.50;;
5125;SDS011;63008;53.112;8.896;2022-12-18T10:18:55;11.70;;;8.67;;
5125;SDS011;63008;53.112;8.896;2022-12-18T10:21:13;15.50;;;8.80;;
5125;SDS011;63008;53.112;8.896;2022-12-18T10:23:22;12.43;;;8.50;;
5125;SDS011;63008;53.112;8.896;2022-12-18T10:25:45;10.97;;;8.63;;
5125;SDS011;63008;53.112;8.896;2022-12-18T10:27:57;13.43;;;8.00;;
5125;SDS011;63008;53.112;8.896;2022-12-18T10:30:12;15.43;;;8.90;;
5125;SDS011;63008;53.112;8.896;2022-12-18T10:32:17;13.73;;;8.50;;
5125;SDS011;63008;53.112;8.896;2022-12-18T10:34:20;14.13;;;9.27;;
5125;SDS011;63008;53.112;8.896;2022-12-18T10:36:21;14.97;;;9.20;;
5125;SDS011;63008;53.112;8.896;2022-12-18T10:38:24;17.07;;;8.30;;
5125;SDS011;63008;53.112;8.896;2022-12-18T10:40:26;18.83;;;8.50;;
5125;SDS011;63008;53.112;8.896;2022-12-18T10:42:27;12.77;;;8.37;;
5125;SDS011;63008;53.112;8.896;2022-12-18T10:44:27;12.50;;;8.10;;
5125;SDS011;63008;53.112;8.896;2022-12-18T10:46:28;20.63;;;10.07;;
5125;SDS011;63008;53.112;8.896;2022-12-18T10:48:30;15.67;;;9.20;;
5125;SDS011;63008;53.112;8.896;2022-12-18T10:50:33;12.83;;;8.80;;
5125;SDS011;63008;53.112;8.896;2022-12-18T10:52:36;18.63;;;9.50;;
5125;SDS011;63008;53.112;8.896;2022-12-18T10:54:37;13.27;;;8.30;;
5125;SDS011;63008;53.112;8.896;2022-12-18T10:56:39;18.83;;;9.57;;
5125;SDS011;63008;53.112;8.896;2022-12-18T10:58:40;15.83;;;9.43;;
5125;SDS011;63008;53.112;8.896;2022-12-18T11:00:41;17.20;;;8.60;;
5125;SDS011;63008;53.112;8.896;2022-12-18T11:02:42;19.73;;;10.07;;
5125;SDS011;63008;53.112;8.896;2022-12-18T11:04:49;10.67;;;7.90;;
5125;SDS011;63008;53.112;8.896;2022-12-18T11:07:02;16.03;;;8.73;;
5125;SDS011;63008;53.112;8.896;2022-12-18T11:09:08;14.80;;;9.98;;
5125;SDS011;63008;53.112;8.896;2022-12-18T11:11:21;18.53;;;10.37;;
5125;SDS011;63008;53.112;8.896;2022-12-18T11:13:24;16.37;;;10.03;;
5125;SDS011;63008;53.112;8.896;2022-12-18T11:15:27;12.40;;;8.63;;
5125;SDS011;63008;53.112;8.896;2022-12-18T11:17:31;11.60;;;7.83;;
5125;SDS011;63008;53.112;8.896;2022-12-18T11:19:36;10.47;;;7.70;;
5125;SDS011;63008;53.112;8.896;2022-12-18T11:21:39;14.17;;;8.77;;
5125;SDS011;63008;53.112;8.896;2022-12-18T11:23:49;10.57;;;7.87;;
5125;SDS011;63008;53.112;8.896;2022-12-18T11:25:53;13.30;;;8.43;;
5125;SDS011;63008;53.112;8.896;2022-12-18T11:28:08;14.53;;;8.80;;
5125;SDS011;63008;53.112;8.896;2022-12-18T11:30:36;13.27;;;7.60;;
5125;SDS011;63008;53.112;8.896;2022-12-18T11:32:38;14.30;;;7.93;;
5125;SDS011;63008;53.112;8.896;2022-12-18T11:34:42;12.53;;;8.50;;
5125;SDS011;63008;53.112;8.896;2022-12-18T11:36:48;14.20;;;8.00;;
5125;SDS011;63008;53.112;8.896;2022-12-18T11:38:50;19.33;;;7.93;;
5125;SDS011;63008;53.112;8.896;2022-12-18T11:40:59;12.70;;;7.60;;
5125;SDS011;63008;53.112;8.896;2022-12-18T11:43:10;11.83;;;6.73;;
5125;SDS011;63008;53.112;8.896;2022-12-18T11:48:28;10.43;;;7.00;;
5125;SDS011;63008;53.112;8.896;2022-12-18T11:52:53;11.13;;;7.57;;
5125;SDS011;63008;53.112;8.896;2022-12-18T11:54:55;17.27;;;7.60;;
5125;SDS011;63008;53.112;8.896;2022-12-18T11:57:06;11.50;;;7.50;;
5125;SDS011;63008;53.112;8.896;2022-12-18T12:01:44;9.10;;;7.10;;
5125;SDS011;63008;53.112;8.896;2022-12-18T12:06:17;11.40;;;5.83;;
5125;SDS011;63008;53.112;8.896;2022-12-18T12:09:00;9.67;;;6.97;;
5125;SDS011;63008;53.112;8.896;2022-12-18T12:16:25;11.63;;;5.50;;
5125;SDS011;63008;53.112;8.896;2022-12-18T12:21:20;8.10;;;5.87;;
5125;SDS011;63008;53.112;8.896;2022-12-18T12:23:31;9.03;;;6.00;;
5125;SDS011;63008;53.112;8.896;2022-12-18T12:26:01;9.40;;;6.27;;
5125;SDS011;63008;53.112;8.896;2022-12-18T12:30:55;6.90;;;6.20;;
5125;SDS011;63008;53.112;8.896;2022-12-18T12:33:17;10.70;;;6.77;;
5125;SDS011;63008;53.112;8.896;2022-12-18T12:38:11;10.67;;;7.00;;
5125;SDS011;63008;53.112;8.896;2022-12-18T12:40:19;14.27;;;7.63;;
5125;SDS011;63008;53.112;8.896;2022-12-18T12:42:35;11.17;;;6.90;;
5125;SDS011;63008;53.112;8.896;2022-12-18T12:45:00;10.87;;;7.90;;
5125;SDS011;63008;53.112;8.896;2022-12-18T12:47:14;14.37;;;7.50;;
5125;SDS011;63008;53.112;8.896;2022-12-18T12:49:21;11.47;;;6.87;;
5125;SDS011;63008;53.112;8.896;2022-12-18T12:51:28;12.17;;;7.30;;
5125;SDS011;63008;53.112;8.896;2022-12-18T12:53:35;8.30;;;6.60;;
5125;SDS011;63008;53.112;8.896;2022-12-18T12:55:38;9.47;;;6.60;;
5125;SDS011;63008;53.112;8.896;2022-12-18T12:57:42;9.50;;;7.00;;
5125;SDS011;63008;53.112;8.896;2022-12-18T13:00:05;11.50;;;7.60;;
5125;SDS011;63008;53.112;8.896;2022-12-18T13:02:14;12.90;;;7.80;;
5125;SDS011;63008;53.112;8.896;2022-12-18T13:04:29;8.80;;;6.63;;
5125;SDS011;63008;53.112;8.896;2022-12-18T13:09:02;11.87;;;7.30;;